Time;durP1;ratioP1;P1;durP2;ratioP2;P2;SDS_P1;SDS_P2;PMS_P1;PMS_P2;Temp;Humidity;BMP_temperature;BMP_pressure;BME280_temperature;BME280_humidity;BME280_pressure;Samples;Min_cycle;Max_cycle;Signal;HPM_P1;HPM_P2
2023/06/04 00:01:12;;;;;;;6.55;3.88;;;;;;;;;;5034988;28;20344;-78
2023/06/04 00:03:38;;;;;;;7.57;3.97;;;;;;;;;;5053314;28;20353;-78
2023/06/04 00:06:04;;;;;;;9.98;3.80;;;;;;;;;;5046692;28;20456;-78
2023/06/04 00:08:30;;;;;;;9.23;4.28;;;;;;;;;;5033556;28;20045;-78
2023/06/04 00:10:57;;;;;;;8.48;4.20;;;;;;;;;;5015243;28;20049;-78
2023/06/04 00:13:23;;;;;;;7.68;3.90;;;;;;;;;;5029509;28;20042;-78
2023/06/04 00:15:49;;;;;;;7.53;3.75;;;;;;;;;;5033286;28;20046;-78
2023/06/04 00:18:15;;;;;;;12.65;4.78;;;;;;;;;;5033459;28;20037;-78
2023/06/04 00:20:41;;;;;;;10.10;3.35;;;;;;;;;;5033181;28;20051;-78
2023/06/04 00:23:07;;;;;;;10.38;4.28;;;;;;;;;;5028687;28;20049;-78
2023/06/04 00:25:33;;;;;;;12.07;4.68;;;;;;;;;;5013625;28;20100;-78
2023/06/04 00:27:59;;;;;;;7.60;4.15;;;;;;;;;;5013953;28;20466;-78
2023/06/04 00:30:25;;;;;;;8.23;4.13;;;;;;;;;;5012216;28;20049;-78
2023/06/04 00:32:51;;;;;;;9.32;3.70;;;;;;;;;;5013137;28;20119;-78
2023/06/04 00:35:17;;;;;;;8.02;4.03;;;;;;;;;;5042645;28;20185;-78
2023/06/04 00:37:43;;;;;;;7.13;3.70;;;;;;;;;;5052904;28;20041;-78
2023/06/04 00:40:10;;;;;;;9.90;4.70;;;;;;;;;;5052964;28;20045;-78
2023/06/04 00:42:36;;;;;;;8.70;4.60;;;;;;;;;;5052633;28;20044;-78
2023/06/04 00:45:02;;;;;;;12.43;4.82;;;;;;;;;;5028859;28;20038;-78
2023/06/04 00:47:28;;;;;;;10.88;5.70;;;;;;;;;;5013094;28;20046;-78
2023/06/04 00:49:57;;;;;;;11.35;5.78;;;;;;;;;;5015225;28;20111;-78
2023/06/04 00:52:23;;;;;;;9.10;6.20;;;;;;;;;;5013440;28;20053;-79
2023/06/04 00:54:50;;;;;;;11.50;7.35;;;;;;;;;;5012898;28;20092;-78
2023/06/04 00:57:16;;;;;;;11.43;7.60;;;;;;;;;;5016626;28;20052;-78
2023/06/04 00:59:42;;;;;;;13.68;8.45;;;;;;;;;;5016587;28;20397;-78
2023/06/04 01:02:13;;;;;;;17.88;10.23;;;;;;;;;;5022034;28;20045;-78
2023/06/04 01:04:51;;;;;;;16.98;9.50;;;;;;;;;;5042073;28;20042;-78
2023/06/04 01:07:17;;;;;;;16.63;9.73;;;;;;;;;;5033434;28;20487;-78
2023/06/04 01:09:44;;;;;;;18.52;10.25;;;;;;;;;;5036623;28;20073;-78
2023/06/04 01:12:11;;;;;;;16.52;9.80;;;;;;;;;;5024921;28;20053;-78
2023/06/04 01:14:37;;;;;;;17.00;9.13;;;;;;;;;;5016240;28;20045;-78
2023/06/04 01:17:37;;;;;;;15.50;9.65;;;;;;;;;;5035056;28;20124;-78
2023/06/04 01:20:38;;;;;;;18.13;10.45;;;;;;;;;;5038726;28;20057;-78
2023/06/04 01:23:16;;;;;;;15.18;9.65;;;;;;;;;;5053897;28;20486;-78
2023/06/04 01:25:43;;;;;;;17.08;10.07;;;;;;;;;;5053658;28;20053;-78
2023/06/04 01:28:11;;;;;;;19.20;9.82;;;;;;;;;;5067791;28;20067;-78
2023/06/04 01:30:45;;;;;;;15.23;9.05;;;;;;;;;;5020674;28;20053;-78
2023/06/04 01:33:17;;;;;;;15.75;8.82;;;;;;;;;;5057076;28;20082;-78
2023/06/04 01:35:43;;;;;;;15.02;8.18;;;;;;;;;;5073399;28;20517;-78
2023/06/04 01:38:09;;;;;;;14.82;8.05;;;;;;;;;;5073662;28;20048;-78
2023/06/04 01:40:36;;;;;;;14.77;8.30;;;;;;;;;;5073566;28;20186;-78
2023/06/04 01:43:02;;;;;;;16.88;8.75;;;;;;;;;;5070238;28;20423;-78
2023/06/04 01:45:29;;;;;;;17.02;8.70;;;;;;;;;;5053254;28;20052;-78
2023/06/04 01:47:56;;;;;;;15.60;8.70;;;;;;;;;;5053370;28;20049;-78
2023/06/04 01:50:22;;;;;;;14.13;8.07;;;;;;;;;;5053339;28;20460;-78
2023/06/04 01:52:48;;;;;;;13.95;7.60;;;;;;;;;;5036726;28;20057;-78
2023/06/04 01:55:16;;;;;;;15.15;8.32;;;;;;;;;;5033963;28;20076;-78
2023/06/04 01:57:43;;;;;;;11.95;7.45;;;;;;;;;;5018513;28;20053;-78
2023/06/04 02:00:10;;;;;;;14.65;7.65;;;;;;;;;;5015441;28;20428;-78
2023/06/04 02:02:41;;;;;;;13.55;7.40;;;;;;;;;;5014409;28;20399;-78
2023/06/04 02:05:08;;;;;;;13.18;7.53;;;;;;;;;;5015771;28;20046;-78
2023/06/04 02:07:35;;;;;;;10.35;6.03;;;;;;;;;;5017957;28;20384;-78
2023/06/04 02:10:01;;;;;;;9.80;6.13;;;;;;;;;;5034951;28;20124;-78
2023/06/04 02:12:27;;;;;;;11.10;6.10;;;;;;;;;;5026966;28;20450;-78
2023/06/04 02:14:53;;;;;;;9.98;6.20;;;;;;;;;;5056447;28;20074;-78
2023/06/04 02:17:20;;;;;;;9.60;6.15;;;;;;;;;;5058440;28;20100;-78
2023/06/04 02:19:49;;;;;;;12.13;6.63;;;;;;;;;;5057615;28;20045;-78
2023/06/04 02:22:18;;;;;;;11.02;5.90;;;;;;;;;;5051830;28;20041;-78
2023/06/04 02:24:44;;;;;;;10.75;6.10;;;;;;;;;;5035415;28;20124;-78
2023/06/04 02:27:11;;;;;;;7.32;5.10;;;;;;;;;;5035433;28;20156;-78
2023/06/04 02:29:37;;;;;;;9.00;5.18;;;;;;;;;;5017535;28;20044;-78
2023/06/04 02:32:04;;;;;;;9.73;5.47;;;;;;;;;;5033551;28;20124;-78
2023/06/04 02:34:30;;;;;;;8.90;5.47;;;;;;;;;;5034620;28;20104;-78
2023/06/04 02:36:56;;;;;;;9.40;5.25;;;;;;;;;;5033104;28;20053;-78
2023/06/04 02:39:22;;;;;;;9.93;5.13;;;;;;;;;;5034656;28;20046;-79
2023/06/04 02:41:48;;;;;;;8.23;5.20;;;;;;;;;;5034709;28;20046;-78
2023/06/04 02:44:14;;;;;;;11.68;5.88;;;;;;;;;;5050322;28;20041;-78
2023/06/04 02:46:40;;;;;;;9.70;5.32;;;;;;;;;;5053019;28;20357;-78
2023/06/04 02:49:06;;;;;;;9.43;6.32;;;;;;;;;;5053112;28;20467;-78
2023/06/04 02:51:32;;;;;;;10.93;5.70;;;;;;;;;;5028121;28;20045;-78
2023/06/04 02:53:58;;;;;;;9.40;6.25;;;;;;;;;;5014982;28;20045;-78
2023/06/04 02:56:25;;;;;;;9.15;6.47;;;;;;;;;;5014811;28;20068;-78
2023/06/04 02:58:52;;;;;;;11.23;6.13;;;;;;;;;;5029105;28;20049;-78
2023/06/04 03:01:25;;;;;;;10.40;6.57;;;;;;;;;;5039858;28;20033;-78
2023/06/04 03:03:52;;;;;;;8.35;6.38;;;;;;;;;;5054191;28;20037;-78
2023/06/04 03:06:20;;;;;;;9.40;6.43;;;;;;;;;;5054095;28;20056;-78
2023/06/04 03:08:46;;;;;;;8.02;6.03;;;;;;;;;;5053961;28;20076;-78
2023/06/04 03:11:12;;;;;;;8.65;5.50;;;;;;;;;;5048969;28;20054;-78
2023/06/04 03:13:39;;;;;;;9.98;6.78;;;;;;;;;;5034142;28;20056;-78
2023/06/04 03:16:12;;;;;;;12.20;7.45;;;;;;;;;;5033950;28;20180;-78
2023/06/04 03:18:38;;;;;;;9.27;6.20;;;;;;;;;;5032783;28;20045;-78
2023/06/04 03:21:07;;;;;;;7.78;6.00;;;;;;;;;;5029610;28;20042;-78
2023/06/04 03:23:34;;;;;;;9.88;6.50;;;;;;;;;;5013208;28;20049;-78
2023/06/04 03:26:01;;;;;;;9.95;6.38;;;;;;;;;;5013117;28;20092;-78
2023/06/04 03:28:27;;;;;;;11.40;6.85;;;;;;;;;;5014146;28;20088;-78
2023/06/04 03:30:54;;;;;;;11.38;6.50;;;;;;;;;;5012755;28;20447;-78
2023/06/04 03:33:20;;;;;;;9.35;5.90;;;;;;;;;;5014788;28;20054;-78
2023/06/04 03:35:47;;;;;;;9.07;5.72;;;;;;;;;;5047998;28;20098;-78
2023/06/04 03:38:15;;;;;;;9.35;5.75;;;;;;;;;;5054064;28;20052;-78
2023/06/04 03:40:41;;;;;;;8.38;5.70;;;;;;;;;;5053727;28;20049;-78
2023/06/04 03:43:07;;;;;;;7.18;5.53;;;;;;;;;;5013700;28;20403;-78
2023/06/04 03:45:33;;;;;;;7.63;6.03;;;;;;;;;;5015975;28;20037;-78
2023/06/04 03:47:59;;;;;;;10.85;5.90;;;;;;;;;;5033712;28;20373;-78
2023/06/04 03:50:25;;;;;;;7.68;5.20;;;;;;;;;;5033490;28;20046;-78
2023/06/04 03:52:51;;;;;;;8.90;5.80;;;;;;;;;;5033288;28;20060;-78
2023/06/04 03:55:18;;;;;;;9.20;6.22;;;;;;;;;;5033443;28;20049;-78
2023/06/04 03:57:44;;;;;;;9.75;5.90;;;;;;;;;;5033864;28;20052;-78
2023/06/04 04:00:12;;;;;;;10.25;6.15;;;;;;;;;;5033582;28;20068;-78
2023/06/04 04:02:42;;;;;;;8.63;5.60;;;;;;;;;;5032233;28;20053;-78
2023/06/04 04:05:09;;;;;;;11.02;5.80;;;;;;;;;;5032084;28;20132;-78
2023/06/04 04:07:35;;;;;;;9.52;5.40;;;;;;;;;;5033630;28;20124;-78
2023/06/04 04:10:01;;;;;;;8.38;5.22;;;;;;;;;;5013473;28;20096;-79
2023/06/04 04:12:27;;;;;;;9.65;5.90;;;;;;;;;;5033715;28;20041;-78
2023/06/04 04:14:53;;;;;;;11.27;6.40;;;;;;;;;;5020501;28;20045;-78
2023/06/04 04:17:19;;;;;;;10.30;6.38;;;;;;;;;;5014157;28;20064;-78
2023/06/04 04:19:45;;;;;;;10.32;6.32;;;;;;;;;;5017843;28;20440;-78
2023/06/04 04:22:12;;;;;;;10.32;6.47;;;;;;;;;;5052701;28;20526;-78
2023/06/04 04:24:39;;;;;;;11.23;6.45;;;;;;;;;;5052740;28;20055;-79
2023/06/04 04:27:05;;;;;;;9.15;6.40;;;;;;;;;;5035513;28;20046;-79
2023/06/04 04:29:35;;;;;;;10.25;6.30;;;;;;;;;;5031751;28;20049;-78
2023/06/04 04:32:11;;;;;;;8.68;6.20;;;;;;;;;;5014753;28;20046;-78
2023/06/04 04:34:39;;;;;;;;;;;;;;;;;;5024144;28;20168;-78
2023/06/04 04:37:08;;;;;;;11.50;6.45;;;;;;;;;;5033643;28;19921;-78
2023/06/04 04:39:35;;;;;;;12.05;6.93;;;;;;;;;;5034145;28;20064;-78
2023/06/04 04:42:02;;;;;;;13.02;7.30;;;;;;;;;;5034137;28;20050;-78
2023/06/04 04:44:28;;;;;;;9.35;6.68;;;;;;;;;;5016572;28;20230;-78
2023/06/04 04:46:54;;;;;;;10.23;6.68;;;;;;;;;;5033273;28;20533;-78
2023/06/04 04:49:20;;;;;;;10.73;7.07;;;;;;;;;;5034453;28;20507;-78
2023/06/04 04:51:46;;;;;;;9.95;7.38;;;;;;;;;;5017478;28;20492;-79
2023/06/04 04:54:12;;;;;;;11.55;8.02;;;;;;;;;;5015740;28;20385;-79
2023/06/04 04:56:38;;;;;;;12.85;6.75;;;;;;;;;;5021425;28;20045;-78
2023/06/04 04:59:04;;;;;;;11.65;6.78;;;;;;;;;;5036698;28;20045;-78
2023/06/04 05:01:30;;;;;;;11.93;6.95;;;;;;;;;;5049529;28;20472;-78
2023/06/04 05:03:56;;;;;;;10.32;6.93;;;;;;;;;;5036759;28;20074;-78
2023/06/04 05:06:23;;;;;;;13.65;7.88;;;;;;;;;;5015528;28;20553;-79
2023/06/04 05:08:49;;;;;;;12.20;7.70;;;;;;;;;;5014426;28;20129;-79
2023/06/04 05:11:15;;;;;;;13.52;7.43;;;;;;;;;;5026883;28;20053;-79
2023/06/04 05:13:44;;;;;;;14.93;8.00;;;;;;;;;;5034689;28;20049;-78
2023/06/04 05:16:11;;;;;;;14.77;7.80;;;;;;;;;;5033310;28;20530;-79
2023/06/04 05:18:41;;;;;;;12.35;7.50;;;;;;;;;;5034936;28;20128;-79
2023/06/04 05:21:07;;;;;;;12.35;8.20;;;;;;;;;;5037295;28;20093;-79
2023/06/04 05:23:37;;;;;;;13.82;7.68;;;;;;;;;;5040124;28;20057;-79
2023/06/04 05:26:04;;;;;;;11.18;7.80;;;;;;;;;;5021254;28;20104;-79
2023/06/04 05:28:32;;;;;;;9.98;6.95;;;;;;;;;;5015817;28;20081;-79
2023/06/04 05:30:59;;;;;;;11.82;6.75;;;;;;;;;;5027239;28;20353;-80
2023/06/04 05:33:28;;;;;;;17.02;7.47;;;;;;;;;;5036024;28;20076;-80
2023/06/04 05:35:57;;;;;;;12.27;6.68;;;;;;;;;;5029303;28;20053;-79
2023/06/04 05:38:25;;;;;;;10.50;5.85;;;;;;;;;;5044284;28;20104;-81
2023/06/04 05:40:52;;;;;;;10.65;6.55;;;;;;;;;;5043615;28;20057;-79
2023/06/04 05:43:18;;;;;;;11.15;6.88;;;;;;;;;;5046767;28;20093;-79
2023/06/04 05:45:45;;;;;;;11.38;5.75;;;;;;;;;;5045913;28;20458;-79
2023/06/04 05:48:11;;;;;;;10.30;4.70;;;;;;;;;;5046714;28;20101;-79
2023/06/04 05:50:37;;;;;;;8.10;4.20;;;;;;;;;;5030996;28;20067;-79
2023/06/04 05:53:03;;;;;;;12.23;4.05;;;;;;;;;;5041271;28;20049;-79
2023/06/04 05:55:29;;;;;;;7.88;3.58;;;;;;;;;;5044242;28;20049;-80
2023/06/04 05:57:55;;;;;;;18.10;4.05;;;;;;;;;;5043228;28;20060;-80
2023/06/04 06:00:22;;;;;;;10.43;4.43;;;;;;;;;;5043584;28;20131;-79
2023/06/04 06:02:49;;;;;;;7.22;3.60;;;;;;;;;;5051585;28;20038;-79
2023/06/04 06:05:15;;;;;;;7.20;3.20;;;;;;;;;;5041016;28;20192;-79
2023/06/04 06:07:42;;;;;;;12.48;4.78;;;;;;;;;;5036975;28;20049;-79
2023/06/04 06:10:08;;;;;;;6.35;3.60;;;;;;;;;;5022144;28;20646;-79
2023/06/04 06:12:34;;;;;;;6.97;3.58;;;;;;;;;;5041293;28;20048;-79
2023/06/04 06:15:00;;;;;;;6.72;3.20;;;;;;;;;;5039423;28;20076;-79
2023/06/04 06:17:27;;;;;;;7.50;3.30;;;;;;;;;;5040202;28;20056;-79
2023/06/04 06:19:53;;;;;;;6.55;3.78;;;;;;;;;;5041774;28;20168;-79
2023/06/04 06:22:19;;;;;;;7.80;3.60;;;;;;;;;;5039845;28;20060;-79
2023/06/04 06:24:48;;;;;;;5.70;3.10;;;;;;;;;;5022833;28;20045;-79
2023/06/04 06:27:15;;;;;;;8.30;3.55;;;;;;;;;;5021427;28;20054;-79
2023/06/04 06:29:41;;;;;;;9.93;3.75;;;;;;;;;;5019963;28;20053;-79
2023/06/04 06:32:07;;;;;;;6.13;3.05;;;;;;;;;;5051607;28;20063;-79
2023/06/04 06:34:33;;;;;;;9.80;3.60;;;;;;;;;;5058004;28;20150;-79
2023/06/04 06:36:59;;;;;;;10.57;3.80;;;;;;;;;;5018131;28;20042;-79
2023/06/04 06:39:25;;;;;;;6.82;2.95;;;;;;;;;;5048994;28;20056;-79
2023/06/04 06:41:52;;;;;;;6.03;2.90;;;;;;;;;;5047432;28;20049;-79
2023/06/04 06:44:18;;;;;;;6.80;3.00;;;;;;;;;;5040268;28;20105;-80
2023/06/04 06:46:44;;;;;;;8.00;2.78;;;;;;;;;;5039884;28;20073;-81
2023/06/04 06:49:10;;;;;;;6.93;2.83;;;;;;;;;;5057834;28;20380;-80
2023/06/04 06:51:36;;;;;;;9.60;3.15;;;;;;;;;;5032908;28;20472;-86
2023/06/04 06:54:02;;;;;;;6.10;3.38;;;;;;;;;;5031833;28;20087;-82
2023/06/04 06:56:28;;;;;;;8.50;2.90;;;;;;;;;;5028218;28;20056;-79
2023/06/04 06:58:54;;;;;;;7.60;2.53;;;;;;;;;;5014189;28;20050;-78
2023/06/04 07:01:20;;;;;;;4.72;3.00;;;;;;;;;;5031263;28;20054;-85
2023/06/04 07:03:47;;;;;;;7.45;2.90;;;;;;;;;;5058777;28;20068;-80
2023/06/04 07:06:13;;;;;;;6.38;2.70;;;;;;;;;;5060017;28;20070;-80
2023/06/04 07:08:39;;;;;;;8.88;3.10;;;;;;;;;;5059073;28;20131;-80
2023/06/04 07:11:06;;;;;;;5.82;2.42;;;;;;;;;;5037562;28;20115;-80
2023/06/04 07:13:34;;;;;;;3.97;2.45;;;;;;;;;;5038223;28;20102;-79
2023/06/04 07:16:01;;;;;;;5.93;3.35;;;;;;;;;;5026142;28;20072;-81
2023/06/04 07:18:27;;;;;;;4.75;2.65;;;;;;;;;;5036858;28;20045;-81
2023/06/04 07:20:53;;;;;;;4.93;2.65;;;;;;;;;;5037352;28;20046;-81
2023/06/04 07:23:19;;;;;;;7.28;3.20;;;;;;;;;;5057186;28;20056;-81
2023/06/04 07:25:45;;;;;;;7.90;3.15;;;;;;;;;;5057414;28;20107;-81
2023/06/04 07:28:11;;;;;;;7.32;3.30;;;;;;;;;;5056194;28;20119;-81
2023/06/04 07:30:38;;;;;;;6.85;2.60;;;;;;;;;;5048179;28;20072;-80
2023/06/04 07:33:06;;;;;;;9.25;3.30;;;;;;;;;;5037109;28;20038;-80
2023/06/04 07:35:32;;;;;;;4.63;3.03;;;;;;;;;;5038815;28;20050;-80
2023/06/04 07:37:58;;;;;;;4.80;2.60;;;;;;;;;;5036683;28;20091;-80
2023/06/04 07:40:24;;;;;;;7.90;2.88;;;;;;;;;;5037642;28;20127;-80
2023/06/04 07:42:50;;;;;;;4.97;2.72;;;;;;;;;;5021650;28;20104;-80
2023/06/04 07:45:16;;;;;;;5.03;2.72;;;;;;;;;;5017852;28;20061;-81
2023/06/04 07:47:43;;;;;;;5.57;2.50;;;;;;;;;;5051689;28;20071;-80
2023/06/04 07:50:09;;;;;;;5.75;2.60;;;;;;;;;;5038851;28;20053;-80
2023/06/04 07:52:35;;;;;;;4.45;2.67;;;;;;;;;;5050241;28;20095;-80
2023/06/04 07:55:01;;;;;;;5.85;2.60;;;;;;;;;;5055958;28;20048;-80
2023/06/04 07:57:27;;;;;;;5.72;2.90;;;;;;;;;;5056002;28;20091;-80
2023/06/04 07:59:54;;;;;;;5.50;2.88;;;;;;;;;;5054910;28;20044;-81
2023/06/04 08:02:20;;;;;;;5.88;2.80;;;;;;;;;;5024934;28;20083;-80
2023/06/04 08:04:46;;;;;;;6.82;2.42;;;;;;;;;;5014140;28;20042;-81
2023/06/04 08:07:12;;;;;;;5.40;2.67;;;;;;;;;;5017694;28;20077;-81
2023/06/04 08:09:38;;;;;;;6.13;2.90;;;;;;;;;;5015619;28;20046;-80
2023/06/04 08:12:05;;;;;;;7.18;2.58;;;;;;;;;;5032987;28;20077;-80
2023/06/04 08:14:32;;;;;;;5.72;2.30;;;;;;;;;;5054432;28;20135;-80
2023/06/04 08:16:58;;;;;;;5.60;2.53;;;;;;;;;;5035931;28;20082;-80
2023/06/04 08:19:24;;;;;;;5.03;2.72;;;;;;;;;;5036611;28;20438;-80
2023/06/04 08:21:50;;;;;;;6.78;2.72;;;;;;;;;;5035980;28;20120;-80
2023/06/04 08:24:17;;;;;;;4.93;2.50;;;;;;;;;;5035338;28;20045;-80
2023/06/04 08:26:43;;;;;;;5.55;2.67;;;;;;;;;;5018163;28;20053;-80
2023/06/04 08:29:09;;;;;;;4.40;2.50;;;;;;;;;;5036387;28;20052;-80
2023/06/04 08:31:35;;;;;;;4.45;2.20;;;;;;;;;;5015980;28;20042;-80
2023/06/04 08:34:01;;;;;;;4.68;2.60;;;;;;;;;;5016312;28;20049;-80
2023/06/04 08:36:27;;;;;;;4.63;2.35;;;;;;;;;;5014687;28;20377;-81
2023/06/04 08:38:54;;;;;;;5.38;2.30;;;;;;;;;;5015481;28;20526;-81
2023/06/04 08:41:35;;;;;;;5.00;2.47;;;;;;;;;;5020755;28;20050;-81
2023/06/04 08:44:02;;;;;;;5.32;2.22;;;;;;;;;;5039343;28;20038;-80
2023/06/04 08:46:32;;;;;;;3.72;2.28;;;;;;;;;;5035712;28;20049;-80
2023/06/04 08:49:03;;;;;;;5.85;2.50;;;;;;;;;;5036117;28;20487;-80
2023/06/04 08:51:32;;;;;;;4.47;2.50;;;;;;;;;;5024356;28;20080;-80
2023/06/04 08:53:59;;;;;;;4.85;2.47;;;;;;;;;;5067878;28;20049;-81
2023/06/04 08:56:26;;;;;;;3.35;2.30;;;;;;;;;;5069710;28;20099;-81
2023/06/04 08:58:52;;;;;;;3.33;2.20;;;;;;;;;;5069028;28;20056;-81
2023/06/04 09:01:18;;;;;;;4.00;2.20;;;;;;;;;;5052102;28;20076;-81
2023/06/04 09:03:45;;;;;;;6.18;2.28;;;;;;;;;;5065793;28;20044;-81
2023/06/04 09:06:11;;;;;;;4.15;2.40;;;;;;;;;;5067709;28;20040;-81
2023/06/04 09:08:38;;;;;;;3.63;2.63;;;;;;;;;;5049523;28;20438;-81
2023/06/04 09:11:06;;;;;;;4.63;2.40;;;;;;;;;;5065447;28;20486;-80
2023/06/04 09:13:33;;;;;;;4.18;2.40;;;;;;;;;;5061937;28;20040;-81
2023/06/04 09:16:03;;;;;;;4.47;2.45;;;;;;;;;;5053541;28;20052;-87
2023/06/04 09:18:29;;;;;;;4.55;2.40;;;;;;;;;;5037044;28;20096;-81
2023/06/04 09:21:06;;;;;;;4.75;2.25;;;;;;;;;;5034123;28;20091;-81
2023/06/04 09:23:32;;;;;;;4.53;2.20;;;;;;;;;;5034222;28;20064;-81
2023/06/04 09:26:07;;;;;;;3.83;2.35;;;;;;;;;;5049124;28;20045;-81
2023/06/04 09:28:33;;;;;;;5.53;2.50;;;;;;;;;;5022800;28;20408;-81
2023/06/04 09:30:59;;;;;;;7.78;2.70;;;;;;;;;;5041639;28;20523;-81
2023/06/04 09:33:26;;;;;;;3.97;2.38;;;;;;;;;;5030026;28;20124;-81
2023/06/04 09:35:59;;;;;;;5.20;2.30;;;;;;;;;;5027831;28;20113;-81
2023/06/04 09:38:35;;;;;;;5.57;2.20;;;;;;;;;;5020089;28;20037;-81
2023/06/04 09:41:04;;;;;;;6.93;2.70;;;;;;;;;;5036193;28;20041;-81
2023/06/04 09:43:31;;;;;;;3.38;2.38;;;;;;;;;;5036895;28;20045;-81
2023/06/04 09:46:08;;;;;;;4.05;2.50;;;;;;;;;;5036363;28;20129;-82
2023/06/04 09:48:34;;;;;;;7.93;2.65;;;;;;;;;;5036151;28;20103;-80
2023/06/04 09:51:06;;;;;;;4.55;2.22;;;;;;;;;;5032322;28;20046;-80
2023/06/04 09:53:32;;;;;;;4.45;2.50;;;;;;;;;;5026664;28;20045;-80
2023/06/04 09:55:59;;;;;;;5.43;2.50;;;;;;;;;;5036468;28;20053;-80
2023/06/04 09:58:29;;;;;;;5.97;2.60;;;;;;;;;;5025540;28;20065;-80
2023/06/04 10:00:59;;;;;;;2.88;2.38;;;;;;;;;;5033188;28;20089;-81
2023/06/04 10:03:26;;;;;;;5.68;2.83;;;;;;;;;;5034700;28;20449;-81
2023/06/04 10:05:57;;;;;;;8.07;2.80;;;;;;;;;;5031117;28;20527;-81
2023/06/04 10:08:23;;;;;;;4.43;2.55;;;;;;;;;;5035392;28;20060;-81
2023/06/04 10:10:56;;;;;;;3.60;2.55;;;;;;;;;;5039281;28;20135;-86
2023/06/04 10:13:23;;;;;;;5.50;3.03;;;;;;;;;;5054703;28;20461;-80
2023/06/04 10:15:50;;;;;;;4.85;2.58;;;;;;;;;;5043203;28;20041;-80
2023/06/04 10:18:16;;;;;;;4.85;2.38;;;;;;;;;;5040587;28;20544;-80
2023/06/04 10:20:42;;;;;;;3.92;2.50;;;;;;;;;;5037972;28;20045;-81
2023/06/04 10:23:09;;;;;;;4.72;2.35;;;;;;;;;;5043989;28;20084;-81
2023/06/04 10:25:36;;;;;;;4.82;2.67;;;;;;;;;;5050783;28;20041;-81
2023/06/04 10:28:03;;;;;;;3.55;2.33;;;;;;;;;;5039292;28;20135;-81
2023/06/04 10:30:33;;;;;;;3.00;2.30;;;;;;;;;;5036224;28;20403;-81
2023/06/04 10:32:59;;;;;;;7.47;2.58;;;;;;;;;;5021986;28;20052;-81
2023/06/04 10:35:35;;;;;;;4.10;2.40;;;;;;;;;;5021519;28;20129;-83
2023/06/04 10:38:10;;;;;;;4.72;2.55;;;;;;;;;;5038539;28;20466;-80
2023/06/04 10:40:37;;;;;;;3.33;2.30;;;;;;;;;;5040119;28;20144;-84
2023/06/04 10:43:10;;;;;;;4.32;2.72;;;;;;;;;;5039543;28;20046;-80
2023/06/04 10:45:36;;;;;;;4.70;2.78;;;;;;;;;;5038743;28;20363;-80
2023/06/04 10:48:03;;;;;;;5.18;3.03;;;;;;;;;;5044863;28;20049;-80
2023/06/04 10:50:29;;;;;;;4.80;2.50;;;;;;;;;;5034581;28;20472;-80
2023/06/04 10:52:58;;;;;;;5.30;2.67;;;;;;;;;;5050825;28;20045;-80
2023/06/04 10:55:24;;;;;;;4.90;2.50;;;;;;;;;;5042236;28;20072;-80
2023/06/04 10:58:02;;;;;;;4.57;2.67;;;;;;;;;;5046131;28;20045;-80
2023/06/04 11:00:37;;;;;;;5.55;2.72;;;;;;;;;;5046073;28;20385;-80
2023/06/04 11:03:05;;;;;;;5.82;2.63;;;;;;;;;;5053745;28;20098;-80
2023/06/04 11:05:35;;;;;;;3.67;2.67;;;;;;;;;;5045895;28;20499;-80
2023/06/04 11:08:02;;;;;;;5.38;2.60;;;;;;;;;;5040202;28;20053;-80
2023/06/04 11:10:35;;;;;;;4.28;2.35;;;;;;;;;;5046239;28;20080;-80
2023/06/04 11:13:01;;;;;;;7.95;2.60;;;;;;;;;;5044166;28;20110;-80
2023/06/04 11:15:27;;;;;;;4.03;2.42;;;;;;;;;;5044964;28;20083;-80
2023/06/04 11:17:54;;;;;;;4.57;2.55;;;;;;;;;;5051891;28;20049;-80
2023/06/04 11:20:22;;;;;;;4.82;2.47;;;;;;;;;;5044508;28;20072;-80
2023/06/04 11:22:52;;;;;;;3.70;2.60;;;;;;;;;;5044941;28;20072;-80
2023/06/04 11:25:18;;;;;;;11.10;2.30;;;;;;;;;;5044509;28;20042;-81
2023/06/04 11:27:45;;;;;;;3.55;2.47;;;;;;;;;;5045161;28;20460;-80
2023/06/04 11:30:12;;;;;;;3.05;2.45;;;;;;;;;;5045705;28;20049;-81
2023/06/04 11:32:38;;;;;;;5.95;2.35;;;;;;;;;;5050321;28;20049;-80
2023/06/04 11:35:07;;;;;;;3.75;2.55;;;;;;;;;;5045681;28;20060;-80
2023/06/04 11:37:33;;;;;;;5.35;2.67;;;;;;;;;;5037367;28;20060;-80
2023/06/04 11:40:05;;;;;;;5.07;2.63;;;;;;;;;;5042664;28;20053;-79
2023/06/04 11:42:31;;;;;;;4.65;2.95;;;;;;;;;;5045155;28;20063;-81
2023/06/04 11:44:58;;;;;;;4.47;2.90;;;;;;;;;;5045924;28;20045;-80
2023/06/04 11:47:24;;;;;;;5.32;2.97;;;;;;;;;;5046687;28;20155;-80
2023/06/04 11:49:55;;;;;;;6.43;2.85;;;;;;;;;;5051223;28;20040;-80
2023/06/04 11:52:22;;;;;;;5.32;2.85;;;;;;;;;;5038272;28;20056;-80
2023/06/04 11:54:48;;;;;;;4.88;2.75;;;;;;;;;;5033764;28;20092;-80
2023/06/04 11:57:14;;;;;;;4.45;2.83;;;;;;;;;;5044448;28;20045;-80
2023/06/04 11:59:40;;;;;;;4.13;2.60;;;;;;;;;;5044737;28;20063;-80
2023/06/04 12:02:07;;;;;;;4.50;2.80;;;;;;;;;;5044678;28;20044;-80
2023/06/04 12:04:33;;;;;;;4.88;2.55;;;;;;;;;;5036336;28;20065;-80
2023/06/04 12:07:01;;;;;;;5.00;2.88;;;;;;;;;;5041875;28;20049;-80
2023/06/04 12:09:40;;;;;;;4.78;3.15;;;;;;;;;;5038618;28;20049;-80
2023/06/04 12:12:07;;;;;;;5.35;2.60;;;;;;;;;;5028939;28;20132;-80
2023/06/04 12:14:33;;;;;;;5.63;2.72;;;;;;;;;;5034749;28;20103;-80
2023/06/04 12:17:00;;;;;;;5.80;2.80;;;;;;;;;;5048117;28;20049;-80
2023/06/04 12:19:26;;;;;;;5.95;3.05;;;;;;;;;;5054358;28;20049;-80
2023/06/04 12:22:05;;;;;;;5.35;2.95;;;;;;;;;;5046124;28;20038;-80
2023/06/04 12:24:36;;;;;;;5.85;3.15;;;;;;;;;;5046527;28;20046;-80
2023/06/04 12:27:08;;;;;;;5.15;3.03;;;;;;;;;;5040133;28;20046;-80
2023/06/04 12:29:34;;;;;;;5.00;2.75;;;;;;;;;;5044180;28;20045;-80
2023/06/04 12:32:11;;;;;;;5.72;3.13;;;;;;;;;;5046194;28;20053;-80
2023/06/04 12:34:40;;;;;;;4.47;3.00;;;;;;;;;;5041558;28;20352;-79
2023/06/04 12:37:07;;;;;;;5.47;2.80;;;;;;;;;;5044244;28;20042;-79
2023/06/04 12:39:36;;;;;;;4.60;2.75;;;;;;;;;;5043371;28;20480;-79
2023/06/04 12:42:06;;;;;;;5.72;2.70;;;;;;;;;;5045069;28;20059;-79
2023/06/04 12:44:32;;;;;;;4.50;2.95;;;;;;;;;;5034142;28;20088;-79
2023/06/04 12:46:58;;;;;;;5.45;3.05;;;;;;;;;;5042132;28;20514;-79
2023/06/04 12:49:24;;;;;;;6.13;3.10;;;;;;;;;;5028093;28;20038;-79
2023/06/04 12:51:50;;;;;;;5.80;2.95;;;;;;;;;;5039723;28;20072;-79
2023/06/04 12:54:18;;;;;;;5.78;2.83;;;;;;;;;;5063224;28;20045;-79
2023/06/04 12:56:44;;;;;;;5.05;2.80;;;;;;;;;;5049874;28;20045;-80
2023/06/04 12:59:10;;;;;;;5.10;2.83;;;;;;;;;;5042742;28;20048;-80
2023/06/04 13:01:39;;;;;;;6.25;3.08;;;;;;;;;;5027108;28;20050;-80
2023/06/04 13:04:06;;;;;;;6.65;3.05;;;;;;;;;;5027227;28;20046;-80
2023/06/04 13:06:32;;;;;;;4.38;2.80;;;;;;;;;;5026100;28;20112;-80
2023/06/04 13:08:58;;;;;;;6.63;3.20;;;;;;;;;;5031938;28;20045;-80
2023/06/04 13:11:24;;;;;;;3.40;2.60;;;;;;;;;;5042100;28;20052;-80
2023/06/04 13:13:50;;;;;;;3.97;2.80;;;;;;;;;;5036300;28;20373;-80
2023/06/04 13:16:16;;;;;;;3.47;2.50;;;;;;;;;;5032919;28;20045;-86
2023/06/04 13:18:42;;;;;;;4.55;2.72;;;;;;;;;;5028868;28;20041;-80
2023/06/04 13:21:08;;;;;;;5.10;2.50;;;;;;;;;;5026152;28;20042;-79
2023/06/04 13:23:34;;;;;;;6.40;2.88;;;;;;;;;;5041167;28;20148;-79
2023/06/04 13:26:01;;;;;;;4.55;2.85;;;;;;;;;;5037648;28;20049;-79
2023/06/04 13:28:27;;;;;;;5.30;2.55;;;;;;;;;;5030471;28;20054;-79
2023/06/04 13:30:53;;;;;;;4.63;2.70;;;;;;;;;;5033580;28;20046;-79
2023/06/04 13:33:21;;;;;;;5.68;2.72;;;;;;;;;;5030724;28;20042;-79
2023/06/04 13:35:50;;;;;;;5.50;2.78;;;;;;;;;;5031415;28;20056;-78
2023/06/04 13:38:16;;;;;;;6.18;2.55;;;;;;;;;;5031150;28;20440;-79
2023/06/04 13:40:43;;;;;;;5.68;3.00;;;;;;;;;;5024158;28;20061;-79
2023/06/04 13:43:09;;;;;;;4.97;2.70;;;;;;;;;;5029027;28;20042;-79
2023/06/04 13:45:35;;;;;;;4.03;2.95;;;;;;;;;;5026942;28;20080;-79
2023/06/04 13:48:05;;;;;;;5.22;2.50;;;;;;;;;;5015941;28;20067;-79
2023/06/04 13:50:32;;;;;;;6.18;3.20;;;;;;;;;;5027700;28;20049;-79
2023/06/04 13:52:58;;;;;;;5.03;2.90;;;;;;;;;;5030053;28;20041;-79
2023/06/04 13:55:24;;;;;;;4.13;2.47;;;;;;;;;;5035733;28;20041;-79
2023/06/04 13:57:50;;;;;;;6.28;2.60;;;;;;;;;;5042649;28;20042;-79
2023/06/04 14:00:16;;;;;;;4.20;2.50;;;;;;;;;;5040465;28;20049;-79
2023/06/04 14:02:42;;;;;;;5.18;2.50;;;;;;;;;;5051380;28;20045;-79
2023/06/04 14:05:09;;;;;;;5.25;2.80;;;;;;;;;;5056603;28;20056;-79
2023/06/04 14:07:35;;;;;;;4.85;2.78;;;;;;;;;;5043484;28;20041;-79
2023/06/04 14:10:01;;;;;;;6.13;2.60;;;;;;;;;;5034269;28;20124;-79
2023/06/04 14:12:27;;;;;;;3.38;2.60;;;;;;;;;;5033210;28;20052;-79
2023/06/04 14:14:53;;;;;;;4.35;2.90;;;;;;;;;;5034001;28;20060;-78
2023/06/04 14:17:19;;;;;;;6.20;2.80;;;;;;;;;;5039692;28;20046;-78
2023/06/04 14:19:45;;;;;;;3.45;2.53;;;;;;;;;;5050148;28;20045;-78
2023/06/04 14:22:11;;;;;;;4.07;2.80;;;;;;;;;;5031993;28;20053;-78
2023/06/04 14:24:38;;;;;;;4.80;2.85;;;;;;;;;;5033863;28;20395;-81
2023/06/04 14:27:04;;;;;;;5.85;3.00;;;;;;;;;;5027670;28;20111;-79
2023/06/04 14:29:30;;;;;;;4.40;3.00;;;;;;;;;;5017262;28;20042;-87
2023/06/04 14:31:56;;;;;;;8.95;3.40;;;;;;;;;;5022565;28;20057;-79
2023/06/04 14:34:22;;;;;;;5.03;2.85;;;;;;;;;;5025369;28;20120;-80
2023/06/04 14:36:48;;;;;;;5.75;2.97;;;;;;;;;;5017011;28;20041;-80
2023/06/04 14:39:14;;;;;;;6.88;2.97;;;;;;;;;;5016602;28;20053;-80
2023/06/04 14:41:40;;;;;;;6.07;2.90;;;;;;;;;;5037352;28;20132;-80